createdAt,value
2019-05-12T00:00:03.128Z,10.27
2019-05-12T00:02:31.955Z,9.77
2019-05-12T00:05:00.824Z,9.57
2019-05-12T00:07:29.652Z,9.73
2019-05-12T00:09:58.523Z,10.50
2019-05-12T00:12:27.758Z,9.80
2019-05-12T00:14:58.919Z,10.10
2019-05-12T00:17:28.322Z,9.93
2019-05-12T00:19:54.644Z,10.13
2019-05-12T00:22:23.552Z,10.07
2019-05-12T00:24:52.379Z,10.90
2019-05-12T00:27:21.234Z,11.95
2019-05-12T00:29:50.086Z,11.88
2019-05-12T00:32:18.933Z,11.53
2019-05-12T00:34:48.146Z,10.27
2019-05-12T00:37:18.538Z,10.67
2019-05-12T00:39:47.831Z,11.10
2019-05-12T00:42:15.042Z,9.73
2019-05-12T00:44:44.476Z,10.73
2019-05-12T00:47:14.066Z,10.60
2019-05-12T00:49:43.655Z,9.63
2019-05-12T00:52:12.484Z,10.13
2019-05-12T00:54:41.329Z,10.03
2019-05-12T00:57:10.216Z,9.83
2019-05-12T00:59:39.028Z,10.60
2019-05-12T01:02:08.148Z,10.57
2019-05-12T01:04:38.124Z,12.10
2019-05-12T01:07:05.575Z,12.10
2019-05-12T01:09:34.506Z,11.17
2019-05-12T01:12:03.300Z,11.07
2019-05-12T01:14:32.145Z,11.80
2019-05-12T01:17:00.963Z,8.50
2019-05-12T01:19:30.549Z,11.00
2019-05-12T01:21:59.399Z,12.37
2019-05-12T01:24:28.461Z,12.20
2019-05-12T01:26:58.258Z,12.67
2019-05-12T01:29:28.173Z,12.03
2019-05-12T01:31:55.413Z,11.70
2019-05-12T01:34:24.247Z,12.20
2019-05-12T01:36:53.095Z,11.60
2019-05-12T01:39:22.723Z,12.20
2019-05-12T01:41:52.408Z,12.87
2019-05-12T01:44:21.901Z,12.67
2019-05-12T01:46:50.730Z,14.45
2019-05-12T01:49:19.564Z,12.93
2019-05-12T01:51:48.399Z,13.70
2019-05-12T01:54:18.850Z,12.90
2019-05-12T01:56:48.339Z,13.73
2019-05-12T01:59:15.652Z,12.77
2019-05-12T02:01:44.498Z,12.97
2019-05-12T02:04:13.329Z,13.73
2019-05-12T02:06:42.179Z,14.23
2019-05-12T02:09:12.792Z,14.00
2019-05-12T02:11:41.596Z,14.20
2019-05-12T02:14:10.456Z,14.03
2019-05-12T02:16:40.048Z,14.40
2019-05-12T02:19:09.624Z,14.13
2019-05-12T02:21:38.489Z,14.93
2019-05-12T02:24:12.188Z,13.47
2019-05-12T02:26:38.238Z,12.00
2019-05-12T02:29:07.722Z,13.83
2019-05-12T02:31:34.586Z,14.13
2019-05-12T02:34:05.648Z,12.27
2019-05-12T02:36:34.197Z,12.43
2019-05-12T02:39:01.143Z,12.33
2019-05-12T02:41:29.972Z,13.43
2019-05-12T02:43:58.815Z,11.93
2019-05-12T02:46:27.648Z,12.47
2019-05-12T02:48:56.484Z,12.43
2019-05-12T02:51:25.345Z,12.13
2019-05-12T02:53:54.655Z,11.83
2019-05-12T02:56:25.741Z,13.50
2019-05-12T02:58:54.321Z,11.97
2019-05-12T03:01:20.756Z,11.80
2019-05-12T03:03:49.596Z,11.83
2019-05-12T03:06:18.444Z,12.07
2019-05-12T03:08:47.285Z,12.47
2019-05-12T03:11:16.139Z,11.80
2019-05-12T03:13:45.079Z,12.00
2019-05-12T03:16:14.894Z,12.17
2019-05-12T03:18:44.925Z,12.50
2019-05-12T03:21:11.536Z,12.00
2019-05-12T03:23:44.240Z,12.13
2019-05-12T03:26:09.827Z,12.88
2019-05-12T03:28:38.685Z,11.93
2019-05-12T03:31:08.531Z,13.00
2019-05-12T03:33:43.531Z,10.80
2019-05-12T03:36:09.148Z,10.70
2019-05-12T03:38:35.958Z,10.97
2019-05-12T03:41:05.293Z,10.70
2019-05-12T03:43:34.863Z,11.53
2019-05-12T03:46:00.653Z,10.90
2019-05-12T03:48:30.259Z,11.17
2019-05-12T03:50:59.823Z,10.37
2019-05-12T03:53:28.680Z,10.23
2019-05-12T03:55:57.560Z,10.37
2019-05-12T03:58:27.117Z,10.70
2019-05-12T04:00:55.991Z,10.00
2019-05-12T04:03:24.893Z,10.90
2019-05-12T04:05:55.401Z,10.82
2019-05-12T04:08:24.750Z,11.73
2019-05-12T04:10:54.755Z,10.27
2019-05-12T04:13:21.753Z,10.50
2019-05-12T04:15:51.195Z,10.63
2019-05-12T04:18:19.997Z,10.90
2019-05-12T04:20:48.876Z,9.67
2019-05-12T04:23:17.746Z,11.53
2019-05-12T04:25:52.915Z,11.55
2019-05-12T04:28:15.449Z,10.88
2019-05-12T04:30:44.652Z,10.37
2019-05-12T04:33:15.556Z,10.00
2019-05-12T04:35:45.177Z,8.87
2019-05-12T04:38:15.013Z,10.00
2019-05-12T04:40:44.689Z,8.90
2019-05-12T04:43:10.016Z,8.70
2019-05-12T04:45:38.882Z,7.93
2019-05-12T04:48:07.733Z,9.00
2019-05-12T04:50:36.689Z,7.97
2019-05-12T04:53:06.202Z,7.47
2019-05-12T04:55:35.557Z,8.47
2019-05-12T04:58:04.718Z,7.40
2019-05-12T05:00:34.957Z,8.70
2019-05-12T05:03:01.400Z,8.00
2019-05-12T05:05:30.246Z,8.30
2019-05-12T05:07:59.848Z,7.97
2019-05-12T05:10:29.437Z,9.40
2019-05-12T05:12:58.284Z,9.40
2019-05-12T05:15:27.129Z,9.53
2019-05-12T05:17:56.048Z,8.90
2019-05-12T05:20:24.876Z,9.87
2019-05-12T05:22:54.257Z,11.00
2019-05-12T05:25:23.646Z,10.17
2019-05-12T05:27:53.298Z,10.10
2019-05-12T05:30:21.092Z,9.95
2019-05-12T05:32:49.936Z,10.03
2019-05-12T05:35:18.784Z,9.80
2019-05-12T05:37:47.635Z,9.30
2019-05-12T05:40:19.882Z,9.83
2019-05-12T05:42:45.936Z,8.47
2019-05-12T05:45:19.548Z,9.10
2019-05-12T05:47:44.278Z,9.20
2019-05-12T05:50:13.543Z,6.53
2019-05-12T05:52:43.277Z,5.23
2019-05-12T05:55:14.756Z,4.90
2019-05-12T05:57:39.036Z,4.60
2019-05-12T06:00:17.485Z,4.63
2019-05-12T06:02:40.366Z,4.73
2019-05-12T06:05:06.352Z,4.57
2019-05-12T06:07:39.136Z,4.90
2019-05-12T06:10:04.203Z,4.90
2019-05-12T06:12:40.371Z,4.53
2019-05-12T06:15:09.007Z,4.60
2019-05-12T06:17:36.550Z,4.43
2019-05-12T06:20:05.396Z,4.10
2019-05-12T06:22:34.973Z,4.93
2019-05-12T06:25:04.864Z,4.60
2019-05-12T06:27:33.665Z,4.50
2019-05-12T06:30:06.017Z,4.53
2019-05-12T06:32:30.356Z,4.37
2019-05-12T06:35:01.631Z,4.50
2019-05-12T06:37:28.030Z,5.17
2019-05-12T06:40:00.503Z,5.00
2019-05-12T06:42:25.742Z,4.97
2019-05-12T06:44:57.900Z,5.07
2019-05-12T06:47:24.173Z,4.40
2019-05-12T06:49:54.792Z,4.82
2019-05-12T06:52:23.660Z,4.70
2019-05-12T06:54:54.666Z,4.50
2019-05-12T06:57:25.419Z,4.10
2019-05-12T06:59:51.414Z,4.17
2019-05-12T07:02:17.172Z,4.50
2019-05-12T07:04:50.298Z,4.57
2019-05-12T07:07:14.880Z,4.97
2019-05-12T07:09:52.856Z,5.00
2019-05-12T07:12:13.762Z,5.57
2019-05-12T07:14:43.413Z,5.07
2019-05-12T07:17:15.673Z,5.10
2019-05-12T07:19:44.524Z,4.80
2019-05-12T07:22:21.908Z,4.50
2019-05-12T07:24:50.217Z,4.40
2019-05-12T07:27:13.942Z,3.80
2019-05-12T07:29:40.634Z,4.03
2019-05-12T07:32:16.564Z,4.33
2019-05-12T07:34:39.154Z,4.37
2019-05-12T07:37:07.990Z,4.83
2019-05-12T07:39:44.789Z,4.60
2019-05-12T07:42:05.747Z,4.37
2019-05-12T07:44:40.321Z,4.57
2019-05-12T07:47:03.711Z,4.03
2019-05-12T07:49:38.240Z,4.13
2019-05-12T07:52:03.443Z,4.37
2019-05-12T07:54:34.647Z,3.87
2019-05-12T07:57:05.381Z,3.80
2019-05-12T07:59:38.990Z,4.10
2019-05-12T08:01:56.498Z,3.70
2019-05-12T08:04:26.096Z,4.17
2019-05-12T08:06:54.993Z,4.20
2019-05-12T08:09:32.144Z,4.30
2019-05-12T08:11:54.077Z,3.70
2019-05-12T08:14:27.792Z,3.93
2019-05-12T08:16:50.364Z,4.23
2019-05-12T08:19:24.020Z,3.70
2019-05-12T08:21:49.332Z,3.67
2019-05-12T08:24:17.645Z,4.00
2019-05-12T08:26:49.613Z,4.63
2019-05-12T08:29:21.353Z,4.07
2019-05-12T08:31:44.954Z,4.57
2019-05-12T08:34:13.799Z,4.40
2019-05-12T08:36:44.952Z,4.70
2019-05-12T08:39:18.119Z,4.53
2019-05-12T08:41:40.412Z,4.90
2019-05-12T08:44:09.960Z,4.93
2019-05-12T08:46:45.660Z,5.30
2019-05-12T08:49:07.639Z,5.20
2019-05-12T08:51:36.503Z,4.80
2019-05-12T08:54:08.098Z,4.80
2019-05-12T08:56:34.923Z,4.10
2019-05-12T08:59:04.366Z,4.67
2019-05-12T09:01:34.353Z,4.90
2019-05-12T09:04:06.459Z,5.13
2019-05-12T09:06:30.336Z,4.10
2019-05-12T09:08:59.178Z,4.17
2019-05-12T09:11:28.019Z,4.30
2019-05-12T09:14:00.322Z,4.30
2019-05-12T09:16:26.498Z,4.33
2019-05-12T09:18:55.496Z,4.00
2019-05-12T09:21:31.452Z,3.97
2019-05-12T09:23:55.850Z,3.70
2019-05-12T09:26:24.962Z,4.40
2019-05-12T09:28:51.492Z,4.25
2019-05-12T09:31:25.497Z,4.60
2019-05-12T09:33:49.915Z,3.73
2019-05-12T09:36:21.532Z,4.13
2019-05-12T09:38:47.636Z,4.10
2019-05-12T09:41:16.496Z,4.47
2019-05-12T09:43:50.165Z,4.10
2019-05-12T09:46:14.534Z,4.30
2019-05-12T09:48:47.830Z,4.60
2019-05-12T09:51:13.424Z,3.87
2019-05-12T09:53:42.740Z,4.30
2019-05-12T09:56:10.176Z,4.43
2019-05-12T09:58:39.033Z,4.10
2019-05-12T10:01:07.895Z,4.33
2019-05-12T10:03:39.839Z,3.93
2019-05-12T10:06:05.610Z,3.77
2019-05-12T10:08:35.829Z,4.23
2019-05-12T10:11:03.743Z,4.10
2019-05-12T10:13:32.176Z,3.97
2019-05-12T10:16:04.927Z,4.33
2019-05-12T10:18:30.589Z,5.28
2019-05-12T10:20:59.429Z,4.82
2019-05-12T10:23:29.005Z,3.87
2019-05-12T10:26:01.360Z,4.35
2019-05-12T10:28:26.682Z,4.03
2019-05-12T10:30:56.973Z,4.10
2019-05-12T10:33:24.376Z,4.23
2019-05-12T10:35:54.203Z,3.70
2019-05-12T10:38:23.997Z,4.20
2019-05-12T10:40:50.936Z,3.57
2019-05-12T10:43:19.773Z,3.57
2019-05-12T10:45:48.623Z,4.20
2019-05-12T10:48:17.491Z,3.73
2019-05-12T10:50:46.343Z,3.90
2019-05-12T10:53:17.744Z,3.70
2019-05-12T10:55:44.171Z,3.53
2019-05-12T10:58:14.524Z,3.95
2019-05-12T11:00:44.188Z,3.80
2019-05-12T11:03:12.427Z,3.67
2019-05-12T11:05:39.427Z,3.43
2019-05-12T11:08:11.087Z,3.73
2019-05-12T11:10:37.137Z,3.40
2019-05-12T11:13:08.509Z,3.93
2019-05-12T11:15:39.489Z,3.53
2019-05-12T11:18:03.697Z,3.30
2019-05-12T11:20:34.395Z,3.20
2019-05-12T11:23:03.390Z,3.30
2019-05-12T11:25:30.767Z,3.30
2019-05-12T11:27:59.625Z,2.83
2019-05-12T11:30:28.476Z,3.10
2019-05-12T11:32:59.729Z,3.20
2019-05-12T11:35:26.176Z,3.37
2019-05-12T11:37:55.026Z,3.20
2019-05-12T11:40:24.045Z,3.07
2019-05-12T11:42:55.679Z,3.00
2019-05-12T11:45:21.553Z,2.87
2019-05-12T11:47:50.389Z,2.97
2019-05-12T11:50:19.976Z,3.03
2019-05-12T11:52:51.017Z,2.93
2019-05-12T11:55:21.397Z,2.93
2019-05-12T11:57:47.258Z,3.40
2019-05-12T12:00:16.103Z,3.53
2019-05-12T12:02:44.941Z,3.90
2019-05-12T12:05:14.522Z,3.30
2019-05-12T12:07:49.057Z,3.30
2019-05-12T12:10:14.110Z,3.13
2019-05-12T12:12:45.292Z,3.53
2019-05-12T12:15:10.693Z,3.10
2019-05-12T12:17:39.538Z,2.97
2019-05-12T12:20:08.401Z,3.93
2019-05-12T12:22:43.450Z,3.57
2019-05-12T12:25:13.578Z,3.62
2019-05-12T12:27:40.596Z,3.30
2019-05-12T12:30:18.620Z,2.83
2019-05-12T12:32:39.034Z,3.30
2019-05-12T12:35:11.915Z,3.63
2019-05-12T12:37:36.708Z,3.00
2019-05-12T12:40:05.534Z,3.40
2019-05-12T12:42:36.912Z,3.00
2019-05-12T12:45:04.360Z,2.73
2019-05-12T12:47:37.999Z,3.10
2019-05-12T12:50:04.051Z,3.10
2019-05-12T12:52:33.269Z,2.70
2019-05-12T12:55:06.826Z,2.77
2019-05-12T12:57:28.802Z,2.90
2019-05-12T12:59:58.231Z,2.97
2019-05-12T13:02:27.852Z,2.73
2019-05-12T13:04:56.683Z,2.63
2019-05-12T13:07:25.513Z,2.23
2019-05-12T13:10:07.189Z,2.50
2019-05-12T13:12:24.704Z,2.27
2019-05-12T13:14:53.547Z,2.60
2019-05-12T13:17:29.058Z,2.70
2019-05-12T13:19:54.754Z,3.03
2019-05-12T13:22:20.107Z,5.20
2019-05-12T13:24:48.953Z,2.40
2019-05-12T13:27:19.197Z,2.60
2019-05-12T13:29:46.658Z,2.22
2019-05-12T13:32:16.235Z,2.37
2019-05-12T13:34:45.663Z,2.50
2019-05-12T13:37:19.184Z,1.90
2019-05-12T13:39:55.298Z,2.20
2019-05-12T13:42:13.651Z,2.20
2019-05-12T13:44:43.186Z,2.10
2019-05-12T13:47:09.984Z,2.43
2019-05-12T13:49:42.816Z,2.10
2019-05-12T13:52:07.664Z,2.13
2019-05-12T13:54:36.503Z,2.07
2019-05-12T13:57:11.731Z,2.20
2019-05-12T13:59:34.241Z,2.20
2019-05-12T14:02:03.353Z,2.63
2019-05-12T14:04:33.677Z,2.07
2019-05-12T14:07:00.793Z,2.20
2019-05-12T14:09:29.631Z,2.10
2019-05-12T14:11:58.483Z,2.10
2019-05-12T14:14:27.350Z,1.80
2019-05-12T14:16:59.417Z,2.05
2019-05-12T14:19:25.042Z,2.00
2019-05-12T14:21:54.320Z,1.90
2019-05-12T14:24:23.302Z,2.30
2019-05-12T14:26:53.413Z,2.07
2019-05-12T14:29:25.402Z,1.80
2019-05-12T14:31:54.517Z,1.90
2019-05-12T14:34:20.790Z,2.20
2019-05-12T14:36:47.683Z,2.00
2019-05-12T14:39:16.533Z,1.83
2019-05-12T14:41:53.173Z,2.10
2019-05-12T14:44:14.251Z,1.70
2019-05-12T14:46:46.334Z,1.97
2019-05-12T14:49:14.027Z,1.83
2019-05-12T14:51:40.757Z,1.57
2019-05-12T14:54:09.603Z,1.80
2019-05-12T14:56:38.433Z,1.70
2019-05-12T14:59:07.266Z,1.80
2019-05-12T15:01:51.592Z,1.70
2019-05-12T15:04:05.292Z,1.73
2019-05-12T15:06:34.064Z,1.50
2019-05-12T15:09:03.361Z,1.60
2019-05-12T15:11:31.487Z,1.70
2019-05-12T15:14:00.380Z,1.50
2019-05-12T15:16:31.853Z,1.80
2019-05-12T15:18:58.033Z,1.63
2019-05-12T15:21:31.180Z,1.60
2019-05-12T15:23:56.489Z,1.60
2019-05-12T15:26:25.325Z,1.50
2019-05-12T15:28:54.466Z,1.17
2019-05-12T15:31:23.747Z,1.77
2019-05-12T15:33:52.533Z,1.67
2019-05-12T15:36:21.369Z,1.50
2019-05-12T15:38:55.535Z,1.30
2019-05-12T15:41:20.232Z,1.60
2019-05-12T15:43:49.046Z,1.50
2019-05-12T15:46:16.769Z,1.73
2019-05-12T15:48:45.612Z,2.20
2019-05-12T15:51:15.191Z,1.63
2019-05-12T15:53:44.547Z,2.07
2019-05-12T15:56:21.031Z,1.43
2019-05-12T15:58:44.180Z,1.60
2019-05-12T16:01:13.878Z,2.23
2019-05-12T16:03:40.242Z,1.37
2019-05-12T16:06:11.710Z,1.50
2019-05-12T16:08:37.973Z,1.60
2019-05-12T16:11:06.811Z,1.40
2019-05-12T16:13:35.657Z,1.45
2019-05-12T16:16:06.683Z,1.20
2019-05-12T16:18:34.471Z,1.30
2019-05-12T16:21:07.276Z,1.47
2019-05-12T16:23:33.968Z,1.20
2019-05-12T16:26:01.563Z,1.10
2019-05-12T16:28:30.198Z,1.40
2019-05-12T16:31:04.287Z,1.30
2019-05-12T16:33:27.903Z,1.20
2019-05-12T16:35:59.889Z,1.30
2019-05-12T16:38:26.441Z,1.20
2019-05-12T16:40:55.258Z,1.10
2019-05-12T16:43:24.115Z,1.20
2019-05-12T16:45:53.799Z,1.10
2019-05-12T16:48:30.184Z,1.20
2019-05-12T16:50:51.451Z,1.23
2019-05-12T16:53:22.053Z,1.00
2019-05-12T16:55:50.019Z,1.05
2019-05-12T16:58:23.321Z,1.25
2019-05-12T17:00:49.715Z,1.27
2019-05-12T17:03:18.198Z,1.23
2019-05-12T17:05:44.878Z,1.40
2019-05-12T17:08:14.022Z,1.07
2019-05-12T17:10:46.965Z,1.10
2019-05-12T17:13:13.474Z,1.07
2019-05-12T17:15:40.277Z,1.10
2019-05-12T17:18:09.133Z,1.30
2019-05-12T17:20:40.888Z,1.00
2019-05-12T17:23:07.615Z,1.10
2019-05-12T17:25:36.485Z,1.23
2019-05-12T17:28:05.796Z,1.50
2019-05-12T17:30:34.900Z,1.53
2019-05-12T17:33:05.182Z,0.85
2019-05-12T17:35:34.963Z,1.10
2019-05-12T17:38:04.084Z,1.00
2019-05-12T17:40:33.694Z,1.10
2019-05-12T17:43:09.177Z,1.00
2019-05-12T17:45:28.747Z,1.03
2019-05-12T17:48:02.935Z,0.93
2019-05-12T17:50:26.472Z,1.00
2019-05-12T17:52:58.988Z,1.00
2019-05-12T17:55:24.146Z,0.90
2019-05-12T17:57:56.495Z,1.00
2019-05-12T18:00:23.483Z,1.10
2019-05-12T18:02:56.255Z,1.17
2019-05-12T18:05:19.587Z,1.00
2019-05-12T18:07:50.932Z,1.27
2019-05-12T18:10:17.246Z,1.20
2019-05-12T18:12:46.108Z,1.40
2019-05-12T18:15:15.472Z,1.10
2019-05-12T18:17:47.386Z,1.00
2019-05-12T18:20:14.391Z,1.17
2019-05-12T18:22:44.863Z,1.20
2019-05-12T18:25:11.174Z,1.13
2019-05-12T18:27:44.529Z,1.00
2019-05-12T18:30:08.895Z,1.75
2019-05-12T18:32:37.753Z,1.20
2019-05-12T18:35:06.605Z,1.20
2019-05-12T18:37:35.459Z,0.93
2019-05-12T18:40:04.302Z,0.90
2019-05-12T18:42:33.696Z,1.10
2019-05-12T18:45:11.866Z,1.00
2019-05-12T18:47:36.302Z,0.97
2019-05-12T18:50:01.211Z,1.00
2019-05-12T18:52:39.291Z,1.17
2019-05-12T18:54:58.959Z,1.10
2019-05-12T18:57:27.794Z,1.10
2019-05-12T19:00:03.438Z,1.20
2019-05-12T19:02:28.500Z,1.10
2019-05-12T19:04:54.348Z,1.30
2019-05-12T19:07:38.650Z,1.10
2019-05-12T19:09:52.059Z,1.10
2019-05-12T19:12:31.764Z,1.10
2019-05-12T19:14:52.516Z,1.27
2019-05-12T19:17:19.380Z,1.00
2019-05-12T19:19:52.147Z,1.13
2019-05-12T19:22:17.114Z,1.20
2019-05-12T19:24:50.084Z,1.23
2019-05-12T19:27:16.551Z,1.03
2019-05-12T19:29:48.346Z,1.00
2019-05-12T19:32:14.338Z,1.03
2019-05-12T19:34:43.353Z,1.07
2019-05-12T19:37:14.143Z,1.20
2019-05-12T19:39:40.531Z,1.07
2019-05-12T19:42:10.441Z,1.20
2019-05-12T19:44:38.251Z,1.17
2019-05-12T19:47:07.833Z,1.40
2019-05-12T19:49:46.660Z,1.30
2019-05-12T19:52:05.547Z,1.07
2019-05-12T19:54:36.849Z,1.17
2019-05-12T19:57:03.288Z,1.30
2019-05-12T19:59:34.155Z,1.20
2019-05-12T20:02:01.030Z,1.10
2019-05-12T20:04:33.867Z,1.40
2019-05-12T20:07:00.245Z,1.20
2019-05-12T20:09:29.077Z,1.20
2019-05-12T20:12:01.219Z,1.20
2019-05-12T20:14:26.800Z,1.17
2019-05-12T20:16:55.646Z,1.07
2019-05-12T20:19:25.540Z,1.13
2019-05-12T20:21:54.317Z,1.20
2019-05-12T20:24:23.682Z,1.17
2019-05-12T20:26:53.717Z,1.20
2019-05-12T20:29:26.617Z,1.17
2019-05-12T20:31:49.532Z,1.30
2019-05-12T20:34:18.377Z,1.30
2019-05-12T20:36:47.271Z,1.17
2019-05-12T20:39:21.728Z,1.10
2019-05-12T20:41:45.576Z,1.37
2019-05-12T20:44:17.323Z,1.23
2019-05-12T20:46:43.346Z,1.10
2019-05-12T20:49:14.735Z,0.90
2019-05-12T20:51:40.955Z,1.20
2019-05-12T20:54:15.323Z,1.10
2019-05-12T20:56:39.277Z,1.10
2019-05-12T20:59:08.130Z,1.07
2019-05-12T21:01:37.003Z,1.10
2019-05-12T21:04:07.723Z,1.10
2019-05-12T21:06:41.813Z,1.20
2019-05-12T21:09:04.304Z,1.10
2019-05-12T21:11:33.843Z,1.10
2019-05-12T21:14:09.929Z,1.30
2019-05-12T21:16:34.641Z,1.20
2019-05-12T21:19:07.564Z,1.20
2019-05-12T21:21:34.351Z,1.23
2019-05-12T21:23:59.493Z,1.43
2019-05-12T21:26:28.404Z,1.20
2019-05-12T21:28:55.130Z,1.33
2019-05-12T21:31:26.714Z,1.30
2019-05-12T21:33:53.500Z,1.40
2019-05-12T21:36:24.467Z,1.10
2019-05-12T21:38:50.568Z,1.30
2019-05-12T21:41:21.837Z,1.20
2019-05-12T21:43:48.980Z,1.30
2019-05-12T21:46:17.828Z,1.20
2019-05-12T21:48:46.665Z,1.60
2019-05-12T21:51:19.898Z,1.30
2019-05-12T21:53:44.391Z,1.40
2019-05-12T21:56:13.944Z,1.57
2019-05-12T21:58:53.357Z,1.50
2019-05-12T22:01:13.551Z,1.40
2019-05-12T22:03:45.901Z,1.50
2019-05-12T22:06:19.072Z,1.40
2019-05-12T22:08:38.253Z,1.50
2019-05-12T22:11:11.283Z,1.60
2019-05-12T22:13:35.951Z,1.50
2019-05-12T22:16:04.801Z,1.33
2019-05-12T22:18:33.651Z,1.60
2019-05-12T22:21:06.105Z,1.30
2019-05-12T22:23:33.152Z,1.40
2019-05-12T22:26:00.561Z,1.40
2019-05-12T22:28:29.832Z,1.13
2019-05-12T22:30:58.713Z,1.37
2019-05-12T22:33:27.551Z,1.40
2019-05-12T22:36:05.214Z,1.40
2019-05-12T22:38:25.299Z,1.20
2019-05-12T22:40:59.402Z,1.30
2019-05-12T22:43:23.924Z,1.30
2019-05-12T22:48:37.079Z,1.40
2019-05-12T22:50:59.622Z,1.43
2019-05-12T22:53:30.061Z,1.27
2019-05-12T22:56:02.241Z,1.30
2019-05-12T22:58:26.131Z,1.20
2019-05-12T23:01:00.740Z,1.40
2019-05-12T23:03:25.341Z,1.33
2019-05-12T23:05:59.747Z,1.20
2019-05-12T23:08:24.686Z,1.20
2019-05-12T23:10:53.995Z,1.20
2019-05-12T23:13:23.800Z,1.30
2019-05-12T23:15:51.877Z,1.30
2019-05-12T23:18:28.661Z,1.40
2019-05-12T23:20:49.554Z,1.30
2019-05-12T23:23:18.967Z,1.48
2019-05-12T23:25:51.941Z,1.43
2019-05-12T23:28:16.093Z,1.40
2019-05-12T23:30:48.464Z,1.53
2019-05-12T23:33:14.510Z,1.50
2019-05-12T23:35:44.366Z,1.53
2019-05-12T23:38:18.877Z,1.40
2019-05-12T23:40:43.261Z,1.57
2019-05-12T23:43:09.864Z,1.43
2019-05-12T23:45:38.713Z,1.37
2019-05-12T23:48:07.546Z,1.67
2019-05-12T23:50:36.440Z,1.40
2019-05-12T23:53:05.993Z,1.50
2019-05-12T23:55:35.594Z,1.50
2019-05-12T23:58:04.565Z,1.80
